This is the latest recevied weather packets stored in our database for station/object SP2ARQ-13. If no packets are shown the sender has not sent any weather packets the latest 10 day(s).
| Time | Temp. | Humidity | Pressure | Rain* | Wind** | Luminosity | Snow |
|---|---|---|---|---|---|---|---|
| 1777446777 | 7.78° C | 45% | 1028.9 hPa | - | - | - | - |
| 1777445876 | 7.22° C | 45% | 1028.9 hPa | - | - | - | - |
| 1777444976 | 7.22° C | 48% | 1028.8 hPa | - | - | - | - |
| 1777444076 | 6.11° C | 50% | 1028.8 hPa | - | - | - | - |
| 1777443176 | 5.56° C | 54% | 1028.7 hPa | - | - | - | - |
| 1777442276 | 4.44° C | 58% | 1028.6 hPa | - | - | - | - |
| 1777441376 | 3.89° C | 63% | 1028.3 hPa | - | - | - | - |
| 1777440475 | 2.78° C | 69% | 1028.3 hPa | - | - | - | - |
| 1777439575 | 2.22° C | 81% | 1028.2 hPa | - | - | - | - |
| 1777438675 | 1.67° C | 88% | 1028.1 hPa | - | - | - | - |
| 1777437775 | 1.11° C | 95% | 1027.9 hPa | - | - | - | - |
| 1777436875 | 0.56° C | 97% | 1027.8 hPa | - | - | - | - |
| 1777435975 | 0° C | 98% | 1027.7 hPa | - | - | - | - |
| 1777435074 | -0.56° C | 96% | 1027.6 hPa | - | - | - | - |
| 1777434174 | -0.56° C | 91% | 1027.4 hPa | - | - | - | - |
| 1777433274 | -0.56° C | 92% | 1027.4 hPa | - | - | - | - |
| 1777432374 | -0.56° C | 92% | 1027.3 hPa | - | - | - | - |
| 1777431474 | -0.56° C | 90% | 1027.2 hPa | - | - | - | - |
| 1777430574 | -0.56° C | 87% | 1027.2 hPa | - | - | - | - |
| 1777429674 | -0.56° C | 86% | 1027.3 hPa | - | - | - | - |
| 1777428773 | -0.56° C | 84% | 1027.1 hPa | - | - | - | - |
| 1777427873 | -0.56° C | 78% | 1027.2 hPa | - | - | - | - |
| 1777426973 | -0.56° C | 74% | 1027.1 hPa | - | - | - | - |
| 1777426073 | 0° C | 70% | 1027.1 hPa | - | - | - | - |
| 1777425173 | 0° C | 68% | 1027.1 hPa | - | - | - | - |
* Rain since midnight (hover to see other rain measurements)
** Current wind speed in m/s (hover to see current wind gust speed)